createdAt,value
2022-12-11T00:05:11.441Z,17.59
2022-12-11T00:15:13.244Z,17.61
2022-12-11T00:25:14.629Z,17.68
2022-12-11T00:35:16.187Z,17.64
2022-12-11T00:45:17.475Z,17.65
2022-12-11T00:55:18.753Z,17.68
2022-12-11T01:05:20.006Z,17.65
2022-12-11T01:15:21.251Z,17.69
2022-12-11T01:25:22.554Z,17.74
2022-12-11T01:35:23.825Z,17.74
2022-12-11T01:45:27.011Z,17.78
2022-12-11T01:55:28.625Z,17.80
2022-12-11T02:05:29.911Z,17.85
2022-12-11T02:15:31.445Z,17.83
2022-12-11T02:25:32.707Z,17.80
2022-12-11T02:35:33.944Z,17.83
2022-12-11T02:45:35.227Z,17.88
2022-12-11T02:55:36.497Z,17.83
2022-12-11T03:05:37.814Z,17.89
2022-12-11T03:15:39.136Z,17.93
2022-12-11T03:25:40.395Z,17.91
2022-12-11T03:35:41.618Z,17.96
2022-12-11T03:45:42.919Z,17.91
2022-12-11T03:55:44.220Z,17.94
2022-12-11T04:05:45.471Z,17.95
2022-12-11T04:15:46.788Z,17.90
2022-12-11T04:25:48.050Z,17.89
2022-12-11T04:35:49.280Z,17.90
2022-12-11T04:45:50.492Z,17.88
2022-12-11T04:55:51.739Z,17.87
2022-12-11T05:05:53.016Z,17.75
2022-12-11T05:15:54.327Z,17.87
2022-12-11T05:25:55.664Z,17.81
2022-12-11T05:35:56.953Z,17.76
2022-12-11T05:45:58.180Z,17.80
2022-12-11T05:56:01.958Z,17.72
2022-12-11T06:06:03.212Z,17.74
2022-12-11T06:16:04.522Z,17.70
2022-12-11T06:26:05.865Z,17.74
2022-12-11T06:36:07.177Z,17.70
2022-12-11T06:46:08.612Z,17.74
2022-12-11T06:56:09.970Z,17.70
2022-12-11T07:06:11.227Z,17.71
2022-12-11T07:16:12.984Z,17.64
2022-12-11T07:26:14.296Z,17.66
2022-12-11T07:36:15.541Z,17.62
2022-12-11T07:46:16.939Z,17.65
2022-12-11T07:56:18.523Z,17.61
2022-12-11T08:06:19.907Z,17.59
2022-12-11T08:16:21.469Z,17.55
2022-12-11T08:26:23.030Z,17.53
2022-12-11T08:36:24.398Z,17.55
2022-12-11T08:46:25.717Z,17.53
2022-12-11T08:56:27.181Z,17.55
2022-12-11T09:06:28.541Z,17.53
2022-12-11T09:16:30.027Z,17.54
2022-12-11T09:26:31.547Z,17.48
2022-12-11T09:36:32.843Z,17.51
2022-12-11T09:46:34.559Z,17.49
2022-12-11T09:56:35.896Z,17.50
2022-12-11T10:06:37.317Z,17.52
2022-12-11T10:16:38.591Z,17.47
2022-12-11T10:26:39.991Z,17.45
2022-12-11T10:36:41.353Z,17.50
2022-12-11T10:46:42.761Z,17.47
2022-12-11T10:56:44.304Z,17.48
2022-12-11T11:06:48.106Z,17.48
2022-12-11T11:16:49.722Z,17.47
2022-12-11T11:27:13.979Z,17.46
2022-12-11T11:37:13.311Z,17.43
2022-12-11T11:47:14.691Z,17.44
2022-12-11T11:57:16.288Z,17.45
2022-12-11T12:07:17.798Z,17.44
2022-12-11T12:17:19.384Z,17.41
2022-12-11T12:27:50.619Z,17.46
2022-12-11T12:37:42.087Z,17.43
2022-12-11T12:47:43.326Z,17.46
2022-12-11T12:57:44.770Z,17.44
2022-12-11T13:07:49.807Z,17.46
2022-12-11T13:17:55.217Z,17.48
2022-12-11T13:27:56.711Z,17.44
2022-12-11T13:37:58.122Z,17.50
2022-12-11T13:47:59.507Z,17.48
2022-12-11T13:58:09.664Z,17.51
2022-12-11T14:08:13.920Z,17.46
2022-12-11T14:18:22.096Z,17.56
2022-12-11T14:28:30.183Z,17.52
2022-12-11T14:38:41.336Z,17.53
2022-12-11T14:48:42.726Z,17.60
2022-12-11T14:58:44.121Z,17.55
2022-12-11T15:08:45.633Z,17.61
2022-12-11T15:18:46.930Z,17.67
2022-12-11T15:28:48.329Z,17.64
2022-12-11T15:38:49.771Z,17.64
2022-12-11T15:48:52.596Z,17.68
2022-12-11T15:58:55.203Z,17.76
2022-12-11T16:08:56.670Z,17.73
2022-12-11T16:18:58.091Z,17.66
2022-12-11T16:28:59.446Z,17.77
2022-12-11T16:39:00.958Z,17.80
2022-12-11T16:49:02.306Z,17.84
2022-12-11T16:59:03.696Z,17.80
2022-12-11T17:09:05.049Z,17.86
2022-12-11T17:19:06.600Z,17.88
2022-12-11T17:29:08.033Z,17.95
2022-12-11T17:39:09.302Z,17.87
2022-12-11T17:49:10.704Z,17.88
2022-12-11T17:59:12.331Z,17.96
2022-12-11T18:09:13.641Z,17.93
2022-12-11T18:19:15.163Z,17.95
2022-12-11T18:29:16.411Z,17.85
2022-12-11T18:39:17.937Z,17.86
2022-12-11T18:49:19.231Z,17.84
2022-12-11T18:59:20.625Z,17.85
2022-12-11T19:09:22.158Z,17.83
2022-12-11T19:19:23.508Z,17.81
2022-12-11T19:29:24.900Z,17.77
2022-12-11T19:39:26.463Z,17.78
2022-12-11T19:49:27.836Z,17.73
2022-12-11T19:59:29.086Z,17.77
2022-12-11T20:09:30.659Z,17.71
2022-12-11T20:19:32.093Z,17.73
2022-12-11T20:29:33.599Z,17.72
2022-12-11T20:39:34.994Z,17.71
2022-12-11T20:49:36.287Z,17.70
2022-12-11T20:59:37.839Z,17.67
2022-12-11T21:09:39.407Z,17.62
2022-12-11T21:19:40.802Z,17.62
2022-12-11T21:29:42.057Z,17.60
2022-12-11T21:39:43.591Z,17.55
2022-12-11T21:49:44.994Z,17.58
2022-12-11T21:59:46.537Z,17.53
2022-12-11T22:09:48.436Z,17.58
2022-12-11T22:19:49.658Z,17.52
2022-12-11T22:29:51.081Z,17.52
2022-12-11T22:39:52.486Z,17.49
2022-12-11T22:49:53.854Z,17.48
2022-12-11T22:59:55.161Z,17.48
2022-12-11T23:09:56.579Z,17.49
2022-12-11T23:19:57.891Z,17.43
2022-12-11T23:29:59.177Z,17.46
2022-12-11T23:40:00.403Z,17.47
2022-12-11T23:50:01.679Z,17.44
